sensor_id;sensor_type;location;lat;lon;timestamp;temperature;humidity
16976;DHT22;8604;48.148;-1.786;2023-02-01T00:00:09;8.30;99.90
16976;DHT22;8604;48.148;-1.786;2023-02-01T00:02:40;8.30;99.90
16976;DHT22;8604;48.148;-1.786;2023-02-01T00:05:14;8.30;99.90
16976;DHT22;8604;48.148;-1.786;2023-02-01T00:07:47;8.30;99.90
16976;DHT22;8604;48.148;-1.786;2023-02-01T00:10:16;8.30;99.90
16976;DHT22;8604;48.148;-1.786;2023-02-01T00:12:45;8.30;99.90
16976;DHT22;8604;48.148;-1.786;2023-02-01T00:15:13;8.30;99.90
16976;DHT22;8604;48.148;-1.786;2023-02-01T00:17:44;8.40;99.90
16976;DHT22;8604;48.148;-1.786;2023-02-01T00:20:15;8.30;99.90
16976;DHT22;8604;48.148;-1.786;2023-02-01T00:22:45;8.30;99.90
16976;DHT22;8604;48.148;-1.786;2023-02-01T00:25:14;8.30;99.90
16976;DHT22;8604;48.148;-1.786;2023-02-01T00:27:42;8.30;99.90
16976;DHT22;8604;48.148;-1.786;2023-02-01T00:30:12;8.30;99.90
16976;DHT22;8604;48.148;-1.786;2023-02-01T00:32:41;8.30;99.90
16976;DHT22;8604;48.148;-1.786;2023-02-01T00:35:11;8.30;99.90
16976;DHT22;8604;48.148;-1.786;2023-02-01T00:37:39;8.30;99.90
16976;DHT22;8604;48.148;-1.786;2023-02-01T00:40:15;8.30;99.90
16976;DHT22;8604;48.148;-1.786;2023-02-01T00:42:44;8.30;99.90
16976;DHT22;8604;48.148;-1.786;2023-02-01T00:45:12;8.30;99.90
16976;DHT22;8604;48.148;-1.786;2023-02-01T00:47:41;8.30;99.90
16976;DHT22;8604;48.148;-1.786;2023-02-01T00:50:11;8.20;99.90
16976;DHT22;8604;48.148;-1.786;2023-02-01T00:52:40;8.20;99.90
16976;DHT22;8604;48.148;-1.786;2023-02-01T00:55:08;8.20;99.90
16976;DHT22;8604;48.148;-1.786;2023-02-01T00:57:38;8.20;99.90
16976;DHT22;8604;48.148;-1.786;2023-02-01T01:00:08;8.20;99.90
16976;DHT22;8604;48.148;-1.786;2023-02-01T01:02:37;8.20;99.90
16976;DHT22;8604;48.148;-1.786;2023-02-01T01:05:05;8.20;99.90
16976;DHT22;8604;48.148;-1.786;2023-02-01T01:07:34;8.20;99.90
16976;DHT22;8604;48.148;-1.786;2023-02-01T01:10:03;8.20;99.90
16976;DHT22;8604;48.148;-1.786;2023-02-01T01:12:32;8.10;99.90
16976;DHT22;8604;48.148;-1.786;2023-02-01T01:15:02;8.10;99.90
16976;DHT22;8604;48.148;-1.786;2023-02-01T01:17:31;8.10;99.90
16976;DHT22;8604;48.148;-1.786;2023-02-01T01:20:00;8.10;99.90
16976;DHT22;8604;48.148;-1.786;2023-02-01T01:22:29;8.10;99.90
16976;DHT22;8604;48.148;-1.786;2023-02-01T01:24:58;8.10;99.90
16976;DHT22;8604;48.148;-1.786;2023-02-01T01:27:26;8.10;99.90
16976;DHT22;8604;48.148;-1.786;2023-02-01T01:29:55;8.00;99.90
16976;DHT22;8604;48.148;-1.786;2023-02-01T01:32:24;8.00;99.90
16976;DHT22;8604;48.148;-1.786;2023-02-01T01:34:53;8.00;99.90
16976;DHT22;8604;48.148;-1.786;2023-02-01T01:37:22;8.00;99.90
16976;DHT22;8604;48.148;-1.786;2023-02-01T01:39:50;8.00;99.90
16976;DHT22;8604;48.148;-1.786;2023-02-01T01:42:19;8.00;99.90
16976;DHT22;8604;48.148;-1.786;2023-02-01T01:44:58;8.00;99.90
16976;DHT22;8604;48.148;-1.786;2023-02-01T01:47:34;8.00;99.90
16976;DHT22;8604;48.148;-1.786;2023-02-01T01:50:07;8.00;99.90
16976;DHT22;8604;48.148;-1.786;2023-02-01T01:52:36;7.90;99.90
16976;DHT22;8604;48.148;-1.786;2023-02-01T01:55:06;7.90;99.90
16976;DHT22;8604;48.148;-1.786;2023-02-01T01:57:37;7.90;99.90
16976;DHT22;8604;48.148;-1.786;2023-02-01T02:00:09;7.90;99.90
16976;DHT22;8604;48.148;-1.786;2023-02-01T02:02:48;7.90;99.90
16976;DHT22;8604;48.148;-1.786;2023-02-01T02:05:21;7.90;99.90
16976;DHT22;8604;48.148;-1.786;2023-02-01T02:07:51;7.90;99.90
16976;DHT22;8604;48.148;-1.786;2023-02-01T02:10:20;7.90;99.90
16976;DHT22;8604;48.148;-1.786;2023-02-01T02:13:10;7.90;99.90
16976;DHT22;8604;48.148;-1.786;2023-02-01T02:15:43;7.90;99.90
16976;DHT22;8604;48.148;-1.786;2023-02-01T02:18:22;7.90;99.90
16976;DHT22;8604;48.148;-1.786;2023-02-01T02:21:16;7.90;99.90
16976;DHT22;8604;48.148;-1.786;2023-02-01T02:24:14;7.90;99.90
16976;DHT22;8604;48.148;-1.786;2023-02-01T02:27:14;7.90;99.90
16976;DHT22;8604;48.148;-1.786;2023-02-01T02:30:34;7.80;99.90
16976;DHT22;8604;48.148;-1.786;2023-02-01T02:33:30;7.80;99.90
16976;DHT22;8604;48.148;-1.786;2023-02-01T02:36:08;7.80;99.90
16976;DHT22;8604;48.148;-1.786;2023-02-01T02:38:44;7.80;99.90
16976;DHT22;8604;48.148;-1.786;2023-02-01T02:41:18;7.90;99.90
16976;DHT22;8604;48.148;-1.786;2023-02-01T02:44:08;7.90;99.90
16976;DHT22;8604;48.148;-1.786;2023-02-01T02:47:04;7.90;99.90
16976;DHT22;8604;48.148;-1.786;2023-02-01T02:50:02;7.90;99.90
16976;DHT22;8604;48.148;-1.786;2023-02-01T02:53:02;7.90;99.90
16976;DHT22;8604;48.148;-1.786;2023-02-01T02:55:50;7.90;99.90
16976;DHT22;8604;48.148;-1.786;2023-02-01T02:58:29;7.90;99.90
16976;DHT22;8604;48.148;-1.786;2023-02-01T03:01:15;7.90;99.90
16976;DHT22;8604;48.148;-1.786;2023-02-01T03:04:01;7.80;99.90
16976;DHT22;8604;48.148;-1.786;2023-02-01T03:06:39;7.90;99.90
16976;DHT22;8604;48.148;-1.786;2023-02-01T03:09:12;7.90;99.90
16976;DHT22;8604;48.148;-1.786;2023-02-01T03:11:44;7.80;99.90
16976;DHT22;8604;48.148;-1.786;2023-02-01T03:14:33;7.90;99.90
16976;DHT22;8604;48.148;-1.786;2023-02-01T03:17:10;7.80;99.90
16976;DHT22;8604;48.148;-1.786;2023-02-01T03:19:42;7.80;99.90
16976;DHT22;8604;48.148;-1.786;2023-02-01T03:22:18;7.80;99.90
16976;DHT22;8604;48.148;-1.786;2023-02-01T03:24:54;7.80;99.90
16976;DHT22;8604;48.148;-1.786;2023-02-01T03:27:26;7.80;99.90
16976;DHT22;8604;48.148;-1.786;2023-02-01T03:30:00;7.80;99.90
16976;DHT22;8604;48.148;-1.786;2023-02-01T03:32:30;7.80;99.90
16976;DHT22;8604;48.148;-1.786;2023-02-01T03:35:26;7.80;99.90
16976;DHT22;8604;48.148;-1.786;2023-02-01T03:38:01;7.80;99.90
16976;DHT22;8604;48.148;-1.786;2023-02-01T03:40:36;7.80;99.90
16976;DHT22;8604;48.148;-1.786;2023-02-01T03:43:07;7.80;99.90
16976;DHT22;8604;48.148;-1.786;2023-02-01T03:45:44;7.80;99.90
16976;DHT22;8604;48.148;-1.786;2023-02-01T03:48:14;7.80;99.90
16976;DHT22;8604;48.148;-1.786;2023-02-01T03:50:47;7.80;99.90
16976;DHT22;8604;48.148;-1.786;2023-02-01T03:53:20;7.80;99.90
16976;DHT22;8604;48.148;-1.786;2023-02-01T03:55:51;7.80;99.90
16976;DHT22;8604;48.148;-1.786;2023-02-01T03:58:26;7.80;99.90
16976;DHT22;8604;48.148;-1.786;2023-02-01T04:00:56;7.80;99.90
16976;DHT22;8604;48.148;-1.786;2023-02-01T04:06:36;7.80;99.90
16976;DHT22;8604;48.148;-1.786;2023-02-01T04:09:06;7.70;99.90
16976;DHT22;8604;48.148;-1.786;2023-02-01T04:11:35;7.80;99.90
16976;DHT22;8604;48.148;-1.786;2023-02-01T04:14:03;7.80;99.90
16976;DHT22;8604;48.148;-1.786;2023-02-01T04:16:32;7.80;99.90
16976;DHT22;8604;48.148;-1.786;2023-02-01T04:19:01;7.80;99.90
16976;DHT22;8604;48.148;-1.786;2023-02-01T04:21:30;7.80;99.90
16976;DHT22;8604;48.148;-1.786;2023-02-01T04:23:58;7.80;99.90
16976;DHT22;8604;48.148;-1.786;2023-02-01T04:26:28;7.80;99.90
16976;DHT22;8604;48.148;-1.786;2023-02-01T04:28:56;7.80;99.90
16976;DHT22;8604;48.148;-1.786;2023-02-01T04:31:24;7.80;99.90
16976;DHT22;8604;48.148;-1.786;2023-02-01T04:33:55;7.80;99.90
16976;DHT22;8604;48.148;-1.786;2023-02-01T04:36:24;7.80;99.90
16976;DHT22;8604;48.148;-1.786;2023-02-01T04:38:53;7.80;99.90
16976;DHT22;8604;48.148;-1.786;2023-02-01T04:41:21;7.80;99.90
16976;DHT22;8604;48.148;-1.786;2023-02-01T04:43:51;7.80;99.90
16976;DHT22;8604;48.148;-1.786;2023-02-01T04:46:20;7.80;99.90
16976;DHT22;8604;48.148;-1.786;2023-02-01T04:48:48;7.80;99.90
16976;DHT22;8604;48.148;-1.786;2023-02-01T04:51:17;7.80;99.90
16976;DHT22;8604;48.148;-1.786;2023-02-01T04:53:45;7.80;99.90
16976;DHT22;8604;48.148;-1.786;2023-02-01T04:56:14;7.80;99.90
16976;DHT22;8604;48.148;-1.786;2023-02-01T04:58:42;7.80;99.90
16976;DHT22;8604;48.148;-1.786;2023-02-01T05:01:12;7.70;99.90
16976;DHT22;8604;48.148;-1.786;2023-02-01T05:03:40;7.80;99.90
16976;DHT22;8604;48.148;-1.786;2023-02-01T05:06:09;7.80;99.90
16976;DHT22;8604;48.148;-1.786;2023-02-01T05:08:37;7.80;99.90
16976;DHT22;8604;48.148;-1.786;2023-02-01T05:11:06;7.70;99.90
16976;DHT22;8604;48.148;-1.786;2023-02-01T05:13:54;7.80;99.90
16976;DHT22;8604;48.148;-1.786;2023-02-01T05:16:23;7.80;99.90
16976;DHT22;8604;48.148;-1.786;2023-02-01T05:18:52;7.80;99.90
16976;DHT22;8604;48.148;-1.786;2023-02-01T05:21:20;7.80;99.90
16976;DHT22;8604;48.148;-1.786;2023-02-01T05:23:49;7.80;99.90
16976;DHT22;8604;48.148;-1.786;2023-02-01T05:26:34;7.80;99.90
16976;DHT22;8604;48.148;-1.786;2023-02-01T05:29:03;7.80;99.90
16976;DHT22;8604;48.148;-1.786;2023-02-01T05:31:33;7.80;99.90
16976;DHT22;8604;48.148;-1.786;2023-02-01T05:34:02;7.80;99.90
16976;DHT22;8604;48.148;-1.786;2023-02-01T05:36:30;7.80;99.90
16976;DHT22;8604;48.148;-1.786;2023-02-01T05:38:58;7.70;99.90
16976;DHT22;8604;48.148;-1.786;2023-02-01T05:41:27;7.80;99.90
16976;DHT22;8604;48.148;-1.786;2023-02-01T05:43:55;7.70;99.90
16976;DHT22;8604;48.148;-1.786;2023-02-01T05:46:24;7.70;99.90
16976;DHT22;8604;48.148;-1.786;2023-02-01T05:48:53;7.80;99.90
16976;DHT22;8604;48.148;-1.786;2023-02-01T05:51:22;7.80;99.90
16976;DHT22;8604;48.148;-1.786;2023-02-01T05:53:50;7.80;99.90
16976;DHT22;8604;48.148;-1.786;2023-02-01T05:56:18;7.80;99.90
16976;DHT22;8604;48.148;-1.786;2023-02-01T05:58:47;7.80;99.90
16976;DHT22;8604;48.148;-1.786;2023-02-01T06:01:15;7.70;99.90
16976;DHT22;8604;48.148;-1.786;2023-02-01T06:03:43;7.70;99.90
16976;DHT22;8604;48.148;-1.786;2023-02-01T06:06:13;7.70;99.90
16976;DHT22;8604;48.148;-1.786;2023-02-01T06:08:41;7.70;99.90
16976;DHT22;8604;48.148;-1.786;2023-02-01T06:11:10;7.70;99.90
16976;DHT22;8604;48.148;-1.786;2023-02-01T06:13:57;7.70;99.90
16976;DHT22;8604;48.148;-1.786;2023-02-01T06:16:26;7.70;99.90
16976;DHT22;8604;48.148;-1.786;2023-02-01T06:18:54;7.70;99.90
16976;DHT22;8604;48.148;-1.786;2023-02-01T06:21:24;7.70;99.90
16976;DHT22;8604;48.148;-1.786;2023-02-01T06:23:53;7.70;99.90
16976;DHT22;8604;48.148;-1.786;2023-02-01T06:26:24;7.70;99.90
16976;DHT22;8604;48.148;-1.786;2023-02-01T06:28:53;7.70;99.90
16976;DHT22;8604;48.148;-1.786;2023-02-01T06:31:22;7.70;99.90
16976;DHT22;8604;48.148;-1.786;2023-02-01T06:33:52;7.70;99.90
16976;DHT22;8604;48.148;-1.786;2023-02-01T06:36:20;7.70;99.90
16976;DHT22;8604;48.148;-1.786;2023-02-01T06:38:50;7.80;99.90
16976;DHT22;8604;48.148;-1.786;2023-02-01T06:41:19;7.80;99.90
16976;DHT22;8604;48.148;-1.786;2023-02-01T06:43:48;7.80;99.90
16976;DHT22;8604;48.148;-1.786;2023-02-01T06:53:24;7.70;99.90
16976;DHT22;8604;48.148;-1.786;2023-02-01T06:56:04;7.70;99.90
16976;DHT22;8604;48.148;-1.786;2023-02-01T07:02:03;7.70;99.90
16976;DHT22;8604;48.148;-1.786;2023-02-01T07:05:13;7.70;99.90
16976;DHT22;8604;48.148;-1.786;2023-02-01T07:07:53;7.60;99.90
16976;DHT22;8604;48.148;-1.786;2023-02-01T07:11:15;7.70;99.90
16976;DHT22;8604;48.148;-1.786;2023-02-01T07:14:14;7.60;99.90
16976;DHT22;8604;48.148;-1.786;2023-02-01T07:16:55;7.60;99.90
16976;DHT22;8604;48.148;-1.786;2023-02-01T07:20:23;7.60;99.90
16976;DHT22;8604;48.148;-1.786;2023-02-01T07:22:58;7.60;99.90
16976;DHT22;8604;48.148;-1.786;2023-02-01T07:25:42;7.60;99.90
16976;DHT22;8604;48.148;-1.786;2023-02-01T07:28:15;7.50;99.90
16976;DHT22;8604;48.148;-1.786;2023-02-01T07:31:08;7.60;99.90
16976;DHT22;8604;48.148;-1.786;2023-02-01T07:33:55;7.50;99.90
16976;DHT22;8604;48.148;-1.786;2023-02-01T07:37:16;7.50;99.90
16976;DHT22;8604;48.148;-1.786;2023-02-01T07:40:15;7.50;99.90
16976;DHT22;8604;48.148;-1.786;2023-02-01T07:43:54;7.50;99.90
16976;DHT22;8604;48.148;-1.786;2023-02-01T07:46:44;7.50;99.90
16976;DHT22;8604;48.148;-1.786;2023-02-01T07:49:26;7.50;99.90
16976;DHT22;8604;48.148;-1.786;2023-02-01T07:51:55;7.50;99.90
16976;DHT22;8604;48.148;-1.786;2023-02-01T07:54:24;7.50;99.90
16976;DHT22;8604;48.148;-1.786;2023-02-01T07:56:52;7.50;99.90
16976;DHT22;8604;48.148;-1.786;2023-02-01T07:59:22;7.50;99.90
16976;DHT22;8604;48.148;-1.786;2023-02-01T08:01:51;7.50;99.90
16976;DHT22;8604;48.148;-1.786;2023-02-01T08:04:19;7.50;99.90
16976;DHT22;8604;48.148;-1.786;2023-02-01T08:06:47;7.50;99.90
16976;DHT22;8604;48.148;-1.786;2023-02-01T08:09:16;7.60;99.90
16976;DHT22;8604;48.148;-1.786;2023-02-01T08:11:44;7.50;99.90
16976;DHT22;8604;48.148;-1.786;2023-02-01T08:14:14;7.60;99.90
16976;DHT22;8604;48.148;-1.786;2023-02-01T08:16:44;7.60;99.90
16976;DHT22;8604;48.148;-1.786;2023-02-01T08:19:28;7.60;99.90
16976;DHT22;8604;48.148;-1.786;2023-02-01T08:22:13;7.60;99.90
16976;DHT22;8604;48.148;-1.786;2023-02-01T08:28:02;7.60;99.90
16976;DHT22;8604;48.148;-1.786;2023-02-01T08:30:30;7.60;99.90
16976;DHT22;8604;48.148;-1.786;2023-02-01T08:33:00;7.70;99.90
16976;DHT22;8604;48.148;-1.786;2023-02-01T08:35:29;7.70;99.90
16976;DHT22;8604;48.148;-1.786;2023-02-01T08:38:10;7.70;99.90
16976;DHT22;8604;48.148;-1.786;2023-02-01T08:40:38;7.80;99.90
16976;DHT22;8604;48.148;-1.786;2023-02-01T08:43:08;7.80;99.90
16976;DHT22;8604;48.148;-1.786;2023-02-01T08:45:37;7.80;99.90
16976;DHT22;8604;48.148;-1.786;2023-02-01T08:48:07;7.80;99.90
16976;DHT22;8604;48.148;-1.786;2023-02-01T08:50:35;7.90;99.90
16976;DHT22;8604;48.148;-1.786;2023-02-01T08:53:04;8.00;99.90
16976;DHT22;8604;48.148;-1.786;2023-02-01T08:55:32;8.00;99.90
16976;DHT22;8604;48.148;-1.786;2023-02-01T08:58:01;8.00;99.90
16976;DHT22;8604;48.148;-1.786;2023-02-01T09:00:29;8.20;99.90
16976;DHT22;8604;48.148;-1.786;2023-02-01T09:02:58;8.20;99.90
16976;DHT22;8604;48.148;-1.786;2023-02-01T09:05:28;8.20;99.90
16976;DHT22;8604;48.148;-1.786;2023-02-01T09:08:14;8.20;99.90
16976;DHT22;8604;48.148;-1.786;2023-02-01T09:10:43;8.20;99.90
16976;DHT22;8604;48.148;-1.786;2023-02-01T09:13:12;8.20;99.90
16976;DHT22;8604;48.148;-1.786;2023-02-01T09:15:40;8.30;99.90
16976;DHT22;8604;48.148;-1.786;2023-02-01T09:18:09;8.30;99.90
16976;DHT22;8604;48.148;-1.786;2023-02-01T09:20:39;8.30;99.90
16976;DHT22;8604;48.148;-1.786;2023-02-01T09:23:07;8.30;99.90
16976;DHT22;8604;48.148;-1.786;2023-02-01T09:25:37;8.40;99.90
16976;DHT22;8604;48.148;-1.786;2023-02-01T09:28:06;8.40;99.90
16976;DHT22;8604;48.148;-1.786;2023-02-01T09:30:36;8.40;99.90
16976;DHT22;8604;48.148;-1.786;2023-02-01T09:33:05;8.50;99.90
16976;DHT22;8604;48.148;-1.786;2023-02-01T09:35:34;8.50;99.90
16976;DHT22;8604;48.148;-1.786;2023-02-01T09:38:04;8.50;99.90
16976;DHT22;8604;48.148;-1.786;2023-02-01T09:40:34;8.60;99.90
16976;DHT22;8604;48.148;-1.786;2023-02-01T09:43:15;8.60;99.90
16976;DHT22;8604;48.148;-1.786;2023-02-01T09:45:52;8.70;99.90
16976;DHT22;8604;48.148;-1.786;2023-02-01T09:48:30;8.70;99.90
16976;DHT22;8604;48.148;-1.786;2023-02-01T09:51:02;8.80;99.90
16976;DHT22;8604;48.148;-1.786;2023-02-01T09:53:37;8.80;99.90
16976;DHT22;8604;48.148;-1.786;2023-02-01T09:56:12;8.90;99.90
16976;DHT22;8604;48.148;-1.786;2023-02-01T09:58:46;9.00;99.90
16976;DHT22;8604;48.148;-1.786;2023-02-01T10:01:19;9.10;99.90
16976;DHT22;8604;48.148;-1.786;2023-02-01T10:03:49;9.10;99.90
16976;DHT22;8604;48.148;-1.786;2023-02-01T10:06:30;9.20;99.90
16976;DHT22;8604;48.148;-1.786;2023-02-01T10:09:21;9.30;99.90
16976;DHT22;8604;48.148;-1.786;2023-02-01T10:12:04;9.40;99.90
16976;DHT22;8604;48.148;-1.786;2023-02-01T10:14:49;9.50;99.90
16976;DHT22;8604;48.148;-1.786;2023-02-01T10:17:30;9.70;99.90
16976;DHT22;8604;48.148;-1.786;2023-02-01T10:20:10;9.70;99.90
16976;DHT22;8604;48.148;-1.786;2023-02-01T10:22:43;9.80;99.90
16976;DHT22;8604;48.148;-1.786;2023-02-01T10:25:36;9.90;99.90
16976;DHT22;8604;48.148;-1.786;2023-02-01T10:28:09;9.90;99.90
16976;DHT22;8604;48.148;-1.786;2023-02-01T10:30:44;9.90;99.90
16976;DHT22;8604;48.148;-1.786;2023-02-01T10:33:17;9.90;99.90
16976;DHT22;8604;48.148;-1.786;2023-02-01T10:35:46;9.90;99.90
16976;DHT22;8604;48.148;-1.786;2023-02-01T10:38:25;9.90;99.90
16976;DHT22;8604;48.148;-1.786;2023-02-01T10:41:01;9.90;99.90
16976;DHT22;8604;48.148;-1.786;2023-02-01T10:43:31;10.00;99.90
16976;DHT22;8604;48.148;-1.786;2023-02-01T10:46:01;10.00;99.90
16976;DHT22;8604;48.148;-1.786;2023-02-01T10:48:31;10.10;99.90
16976;DHT22;8604;48.148;-1.786;2023-02-01T10:51:01;10.20;99.90
16976;DHT22;8604;48.148;-1.786;2023-02-01T10:53:41;10.20;99.90
16976;DHT22;8604;48.148;-1.786;2023-02-01T10:56:13;10.20;99.90
16976;DHT22;8604;48.148;-1.786;2023-02-01T10:58:46;10.30;99.90
16976;DHT22;8604;48.148;-1.786;2023-02-01T11:01:18;10.30;99.90
16976;DHT22;8604;48.148;-1.786;2023-02-01T11:03:53;10.30;99.90
16976;DHT22;8604;48.148;-1.786;2023-02-01T11:06:27;10.30;99.90
16976;DHT22;8604;48.148;-1.786;2023-02-01T11:08:58;10.30;99.90
16976;DHT22;8604;48.148;-1.786;2023-02-01T11:11:29;10.30;99.90
16976;DHT22;8604;48.148;-1.786;2023-02-01T11:13:59;10.30;99.90
16976;DHT22;8604;48.148;-1.786;2023-02-01T11:16:32;10.40;99.90
16976;DHT22;8604;48.148;-1.786;2023-02-01T11:19:02;10.30;99.90
16976;DHT22;8604;48.148;-1.786;2023-02-01T11:21:31;10.40;99.90
16976;DHT22;8604;48.148;-1.786;2023-02-01T11:24:02;10.40;99.90
16976;DHT22;8604;48.148;-1.786;2023-02-01T11:26:33;10.40;99.90
16976;DHT22;8604;48.148;-1.786;2023-02-01T11:29:04;10.40;99.90
16976;DHT22;8604;48.148;-1.786;2023-02-01T11:31:34;10.40;99.90
16976;DHT22;8604;48.148;-1.786;2023-02-01T11:34:08;10.40;99.90
16976;DHT22;8604;48.148;-1.786;2023-02-01T11:36:40;10.50;99.90
16976;DHT22;8604;48.148;-1.786;2023-02-01T11:39:20;10.50;99.90
16976;DHT22;8604;48.148;-1.786;2023-02-01T11:42:02;10.50;99.90
16976;DHT22;8604;48.148;-1.786;2023-02-01T11:44:35;10.60;99.90
16976;DHT22;8604;48.148;-1.786;2023-02-01T11:47:22;10.70;99.90
16976;DHT22;8604;48.148;-1.786;2023-02-01T11:49:52;10.80;99.90
16976;DHT22;8604;48.148;-1.786;2023-02-01T11:52:42;10.90;99.90
16976;DHT22;8604;48.148;-1.786;2023-02-01T11:55:36;11.00;99.90
16976;DHT22;8604;48.148;-1.786;2023-02-01T11:58:16;11.10;99.90
16976;DHT22;8604;48.148;-1.786;2023-02-01T12:00:59;11.10;99.90
16976;DHT22;8604;48.148;-1.786;2023-02-01T12:04:00;11.10;99.90
16976;DHT22;8604;48.148;-1.786;2023-02-01T12:06:39;11.10;99.90
16976;DHT22;8604;48.148;-1.786;2023-02-01T12:09:28;11.20;99.90
16976;DHT22;8604;48.148;-1.786;2023-02-01T12:12:08;11.20;99.90
16976;DHT22;8604;48.148;-1.786;2023-02-01T12:15:02;11.30;99.90
16976;DHT22;8604;48.148;-1.786;2023-02-01T12:17:56;11.40;99.90
16976;DHT22;8604;48.148;-1.786;2023-02-01T12:20:53;11.50;99.90
16976;DHT22;8604;48.148;-1.786;2023-02-01T12:23:41;11.60;99.90
16976;DHT22;8604;48.148;-1.786;2023-02-01T12:26:30;11.80;99.90
16976;DHT22;8604;48.148;-1.786;2023-02-01T12:29:21;11.80;99.90
16976;DHT22;8604;48.148;-1.786;2023-02-01T12:32:10;11.70;99.90
16976;DHT22;8604;48.148;-1.786;2023-02-01T12:34:53;11.70;99.90
16976;DHT22;8604;48.148;-1.786;2023-02-01T12:37:38;11.70;99.90
16976;DHT22;8604;48.148;-1.786;2023-02-01T12:40:21;11.80;99.90
16976;DHT22;8604;48.148;-1.786;2023-02-01T12:43:00;11.80;99.90
16976;DHT22;8604;48.148;-1.786;2023-02-01T12:45:32;11.80;99.90
16976;DHT22;8604;48.148;-1.786;2023-02-01T12:48:28;11.80;99.90
16976;DHT22;8604;48.148;-1.786;2023-02-01T12:50:59;11.80;99.90
16976;DHT22;8604;48.148;-1.786;2023-02-01T12:53:38;11.80;99.90
16976;DHT22;8604;48.148;-1.786;2023-02-01T12:56:18;11.80;99.90
16976;DHT22;8604;48.148;-1.786;2023-02-01T12:58:53;11.80;99.90
16976;DHT22;8604;48.148;-1.786;2023-02-01T13:01:27;11.80;99.90
16976;DHT22;8604;48.148;-1.786;2023-02-01T13:04:06;11.80;99.90
16976;DHT22;8604;48.148;-1.786;2023-02-01T13:06:41;11.80;99.90
16976;DHT22;8604;48.148;-1.786;2023-02-01T13:09:19;11.80;99.90
16976;DHT22;8604;48.148;-1.786;2023-02-01T13:11:52;11.80;99.90
16976;DHT22;8604;48.148;-1.786;2023-02-01T13:14:28;11.70;99.90
16976;DHT22;8604;48.148;-1.786;2023-02-01T13:17:00;11.70;99.90
16976;DHT22;8604;48.148;-1.786;2023-02-01T13:19:41;11.70;99.90
16976;DHT22;8604;48.148;-1.786;2023-02-01T13:22:13;11.60;99.90
16976;DHT22;8604;48.148;-1.786;2023-02-01T13:24:47;11.50;99.90
16976;DHT22;8604;48.148;-1.786;2023-02-01T13:27:17;11.50;99.90
16976;DHT22;8604;48.148;-1.786;2023-02-01T13:29:52;11.40;99.90
16976;DHT22;8604;48.148;-1.786;2023-02-01T13:36:05;11.40;99.90
16976;DHT22;8604;48.148;-1.786;2023-02-01T13:41:42;11.30;99.90
16976;DHT22;8604;48.148;-1.786;2023-02-01T13:44:24;11.30;99.90
16976;DHT22;8604;48.148;-1.786;2023-02-01T13:46:57;11.20;99.90
16976;DHT22;8604;48.148;-1.786;2023-02-01T13:49:29;11.10;99.90
16976;DHT22;8604;48.148;-1.786;2023-02-01T13:52:00;11.00;99.90
16976;DHT22;8604;48.148;-1.786;2023-02-01T13:54:30;11.00;99.90
16976;DHT22;8604;48.148;-1.786;2023-02-01T13:57:00;10.90;99.90
16976;DHT22;8604;48.148;-1.786;2023-02-01T14:02:49;10.90;99.90
16976;DHT22;8604;48.148;-1.786;2023-02-01T14:11:37;10.70;99.90
16976;DHT22;8604;48.148;-1.786;2023-02-01T14:17:36;10.60;99.90
16976;DHT22;8604;48.148;-1.786;2023-02-01T14:23:21;10.60;99.90
16976;DHT22;8604;48.148;-1.786;2023-02-01T14:26:17;10.60;99.90
16976;DHT22;8604;48.148;-1.786;2023-02-01T14:29:10;10.60;99.90
16976;DHT22;8604;48.148;-1.786;2023-02-01T14:31:53;10.70;99.90
16976;DHT22;8604;48.148;-1.786;2023-02-01T14:34:31;10.80;99.90
16976;DHT22;8604;48.148;-1.786;2023-02-01T14:37:02;10.80;99.90
16976;DHT22;8604;48.148;-1.786;2023-02-01T14:39:36;10.80;99.90
16976;DHT22;8604;48.148;-1.786;2023-02-01T14:42:19;10.80;99.90
16976;DHT22;8604;48.148;-1.786;2023-02-01T14:44:49;10.80;99.90
16976;DHT22;8604;48.148;-1.786;2023-02-01T14:47:29;10.90;99.90
16976;DHT22;8604;48.148;-1.786;2023-02-01T14:50:17;10.90;99.90
16976;DHT22;8604;48.148;-1.786;2023-02-01T14:52:50;10.90;99.90
16976;DHT22;8604;48.148;-1.786;2023-02-01T14:55:26;11.00;99.90
16976;DHT22;8604;48.148;-1.786;2023-02-01T14:58:00;11.00;99.90
16976;DHT22;8604;48.148;-1.786;2023-02-01T15:00:30;11.00;99.90
16976;DHT22;8604;48.148;-1.786;2023-02-01T15:06:02;11.10;99.90
16976;DHT22;8604;48.148;-1.786;2023-02-01T15:08:35;11.10;99.90
16976;DHT22;8604;48.148;-1.786;2023-02-01T15:11:11;11.10;99.90
16976;DHT22;8604;48.148;-1.786;2023-02-01T15:13:50;11.10;99.90
16976;DHT22;8604;48.148;-1.786;2023-02-01T15:16:22;11.10;99.90
16976;DHT22;8604;48.148;-1.786;2023-02-01T15:19:06;11.10;99.90
16976;DHT22;8604;48.148;-1.786;2023-02-01T15:21:47;11.10;99.90
16976;DHT22;8604;48.148;-1.786;2023-02-01T15:24:20;11.00;99.90
16976;DHT22;8604;48.148;-1.786;2023-02-01T15:26:50;11.00;99.90
16976;DHT22;8604;48.148;-1.786;2023-02-01T15:29:22;11.00;99.90
16976;DHT22;8604;48.148;-1.786;2023-02-01T15:31:53;11.00;99.90
16976;DHT22;8604;48.148;-1.786;2023-02-01T15:34:44;11.00;99.90
16976;DHT22;8604;48.148;-1.786;2023-02-01T15:37:16;10.90;99.90
16976;DHT22;8604;48.148;-1.786;2023-02-01T15:40:05;10.90;99.90
16976;DHT22;8604;48.148;-1.786;2023-02-01T15:42:51;10.80;99.90
16976;DHT22;8604;48.148;-1.786;2023-02-01T15:45:25;10.80;99.90
16976;DHT22;8604;48.148;-1.786;2023-02-01T15:47:57;10.70;99.90
16976;DHT22;8604;48.148;-1.786;2023-02-01T15:50:28;10.70;99.90
16976;DHT22;8604;48.148;-1.786;2023-02-01T15:53:00;10.70;99.90
16976;DHT22;8604;48.148;-1.786;2023-02-01T15:55:35;10.60;99.90
16976;DHT22;8604;48.148;-1.786;2023-02-01T15:58:08;10.60;99.90
16976;DHT22;8604;48.148;-1.786;2023-02-01T16:00:45;10.60;99.90
16976;DHT22;8604;48.148;-1.786;2023-02-01T16:03:27;10.60;99.90
16976;DHT22;8604;48.148;-1.786;2023-02-01T16:05:58;10.60;99.90
16976;DHT22;8604;48.148;-1.786;2023-02-01T16:08:29;10.60;99.90
16976;DHT22;8604;48.148;-1.786;2023-02-01T16:11:16;10.60;99.90
16976;DHT22;8604;48.148;-1.786;2023-02-01T16:13:48;10.50;99.90
16976;DHT22;8604;48.148;-1.786;2023-02-01T16:16:18;10.60;99.90
16976;DHT22;8604;48.148;-1.786;2023-02-01T16:18:47;10.50;99.90
16976;DHT22;8604;48.148;-1.786;2023-02-01T16:21:15;10.50;99.90
16976;DHT22;8604;48.148;-1.786;2023-02-01T16:23:48;10.50;99.90
16976;DHT22;8604;48.148;-1.786;2023-02-01T16:26:17;10.50;99.90
16976;DHT22;8604;48.148;-1.786;2023-02-01T16:28:47;10.50;99.90
16976;DHT22;8604;48.148;-1.786;2023-02-01T16:31:21;10.50;99.90
16976;DHT22;8604;48.148;-1.786;2023-02-01T16:33:52;10.40;99.90
16976;DHT22;8604;48.148;-1.786;2023-02-01T16:36:21;10.40;99.90
16976;DHT22;8604;48.148;-1.786;2023-02-01T16:38:49;10.40;99.90
16976;DHT22;8604;48.148;-1.786;2023-02-01T16:41:22;10.30;99.90
16976;DHT22;8604;48.148;-1.786;2023-02-01T16:43:55;10.30;99.90
16976;DHT22;8604;48.148;-1.786;2023-02-01T16:46:27;10.30;99.90
16976;DHT22;8604;48.148;-1.786;2023-02-01T16:48:58;10.20;99.90
16976;DHT22;8604;48.148;-1.786;2023-02-01T16:51:30;10.20;99.90
16976;DHT22;8604;48.148;-1.786;2023-02-01T16:54:00;10.20;99.90
16976;DHT22;8604;48.148;-1.786;2023-02-01T16:56:30;10.10;99.90
16976;DHT22;8604;48.148;-1.786;2023-02-01T16:58:59;10.10;99.90
16976;DHT22;8604;48.148;-1.786;2023-02-01T17:01:29;10.00;99.90
16976;DHT22;8604;48.148;-1.786;2023-02-01T17:03:58;10.00;99.90
16976;DHT22;8604;48.148;-1.786;2023-02-01T17:06:27;10.00;99.90
16976;DHT22;8604;48.148;-1.786;2023-02-01T17:08:58;10.00;99.90
16976;DHT22;8604;48.148;-1.786;2023-02-01T17:11:27;10.00;99.90